Terminal Aerodrome Forecast
Issued by NWS

Home | Current Version | Previous Version | Graphics & Text | Print | Product List | Glossary Off
Versions: 1 2 3 4 5 6 7 8 9 10 11 12 13

000
FTUS43 KICT 042331
TAFHUT
TAF
KHUT 042331Z 0500/0524 17007KT P6SM BKN050
     FM050500 15007KT P6SM VCTS SCT025 OVC050CB
     FM051700 12010KT P6SM BKN060=

USA.gov is the U.S. government's official web portal to all federal, state and local government web resources and services.